sensor_id;sensor_type;location;lat;lon;timestamp;P1;durP1;ratioP1;P2;durP2;ratioP2
20859;SDS011;10590;48.154;11.514;2023-07-08T00:00:27;6.30;;;4.37;;
20859;SDS011;10590;48.154;11.514;2023-07-08T00:05:50;4.93;;;3.33;;
20859;SDS011;10590;48.154;11.514;2023-07-08T00:11:17;3.80;;;3.50;;
20859;SDS011;10590;48.154;11.514;2023-07-08T00:16:40;5.47;;;4.33;;
20859;SDS011;10590;48.154;11.514;2023-07-08T00:22:07;8.27;;;3.70;;
20859;SDS011;10590;48.154;11.514;2023-07-08T00:27:31;6.57;;;3.77;;
20859;SDS011;10590;48.154;11.514;2023-07-08T00:32:55;6.17;;;4.30;;
20859;SDS011;10590;48.154;11.514;2023-07-08T00:38:19;5.33;;;4.27;;
20859;SDS011;10590;48.154;11.514;2023-07-08T00:43:47;5.47;;;3.57;;
20859;SDS011;10590;48.154;11.514;2023-07-08T00:49:19;5.50;;;4.00;;
20859;SDS011;10590;48.154;11.514;2023-07-08T00:54:51;5.03;;;3.67;;
20859;SDS011;10590;48.154;11.514;2023-07-08T01:00:15;6.37;;;3.40;;
20859;SDS011;10590;48.154;11.514;2023-07-08T01:05:40;4.80;;;3.80;;
20859;SDS011;10590;48.154;11.514;2023-07-08T01:11:02;5.23;;;3.40;;
20859;SDS011;10590;48.154;11.514;2023-07-08T01:16:26;3.77;;;3.20;;
20859;SDS011;10590;48.154;11.514;2023-07-08T01:21:58;6.43;;;3.53;;
20859;SDS011;10590;48.154;11.514;2023-07-08T01:27:20;7.20;;;3.87;;
20859;SDS011;10590;48.154;11.514;2023-07-08T01:32:43;4.33;;;3.53;;
20859;SDS011;10590;48.154;11.514;2023-07-08T01:38:11;10.20;;;4.10;;
20859;SDS011;10590;48.154;11.514;2023-07-08T01:43:37;5.43;;;3.83;;
20859;SDS011;10590;48.154;11.514;2023-07-08T01:48:59;7.83;;;3.90;;
20859;SDS011;10590;48.154;11.514;2023-07-08T01:54:24;6.20;;;3.77;;
20859;SDS011;10590;48.154;11.514;2023-07-08T01:59:46;4.70;;;3.93;;
20859;SDS011;10590;48.154;11.514;2023-07-08T02:05:08;7.63;;;3.83;;
20859;SDS011;10590;48.154;11.514;2023-07-08T02:10:31;7.17;;;3.70;;
20859;SDS011;10590;48.154;11.514;2023-07-08T02:15:53;4.97;;;4.07;;
20859;SDS011;10590;48.154;11.514;2023-07-08T02:21:15;10.33;;;4.67;;
20859;SDS011;10590;48.154;11.514;2023-07-08T02:26:39;6.43;;;3.97;;
20859;SDS011;10590;48.154;11.514;2023-07-08T02:32:01;6.57;;;4.20;;
20859;SDS011;10590;48.154;11.514;2023-07-08T02:37:23;6.07;;;4.20;;
20859;SDS011;10590;48.154;11.514;2023-07-08T02:42:48;5.70;;;4.40;;
20859;SDS011;10590;48.154;11.514;2023-07-08T02:48:10;5.53;;;4.17;;
20859;SDS011;10590;48.154;11.514;2023-07-08T02:53:32;7.97;;;4.40;;
20859;SDS011;10590;48.154;11.514;2023-07-08T02:58:55;5.07;;;4.43;;
20859;SDS011;10590;48.154;11.514;2023-07-08T03:04:17;7.10;;;4.23;;
20859;SDS011;10590;48.154;11.514;2023-07-08T03:09:42;7.63;;;3.93;;
20859;SDS011;10590;48.154;11.514;2023-07-08T03:15:07;6.40;;;4.90;;
20859;SDS011;10590;48.154;11.514;2023-07-08T03:20:29;8.90;;;4.33;;
20859;SDS011;10590;48.154;11.514;2023-07-08T03:25:52;6.77;;;4.30;;
20859;SDS011;10590;48.154;11.514;2023-07-08T03:31:16;7.03;;;4.00;;
20859;SDS011;10590;48.154;11.514;2023-07-08T03:36:40;8.57;;;4.17;;
20859;SDS011;10590;48.154;11.514;2023-07-08T03:42:08;4.60;;;4.00;;
20859;SDS011;10590;48.154;11.514;2023-07-08T03:47:32;6.27;;;4.53;;
20859;SDS011;10590;48.154;11.514;2023-07-08T03:52:54;6.00;;;4.47;;
20859;SDS011;10590;48.154;11.514;2023-07-08T03:58:17;7.90;;;4.67;;
20859;SDS011;10590;48.154;11.514;2023-07-08T04:03:40;5.50;;;3.63;;
20859;SDS011;10590;48.154;11.514;2023-07-08T04:09:02;6.77;;;4.03;;
20859;SDS011;10590;48.154;11.514;2023-07-08T04:14:24;7.53;;;4.70;;
20859;SDS011;10590;48.154;11.514;2023-07-08T04:19:47;4.77;;;3.60;;
20859;SDS011;10590;48.154;11.514;2023-07-08T04:25:10;6.27;;;4.17;;
20859;SDS011;10590;48.154;11.514;2023-07-08T04:30:32;4.77;;;4.23;;
20859;SDS011;10590;48.154;11.514;2023-07-08T04:35:59;7.20;;;4.20;;
20859;SDS011;10590;48.154;11.514;2023-07-08T04:41:21;7.07;;;5.13;;
20859;SDS011;10590;48.154;11.514;2023-07-08T04:46:44;6.10;;;3.93;;
20859;SDS011;10590;48.154;11.514;2023-07-08T04:52:12;7.03;;;4.57;;
20859;SDS011;10590;48.154;11.514;2023-07-08T04:57:34;8.10;;;4.30;;
20859;SDS011;10590;48.154;11.514;2023-07-08T05:02:56;7.17;;;5.20;;
20859;SDS011;10590;48.154;11.514;2023-07-08T05:08:20;8.63;;;5.20;;
20859;SDS011;10590;48.154;11.514;2023-07-08T05:13:42;5.87;;;4.50;;
20859;SDS011;10590;48.154;11.514;2023-07-08T05:19:03;9.47;;;5.23;;
20859;SDS011;10590;48.154;11.514;2023-07-08T05:24:27;7.20;;;4.67;;
20859;SDS011;10590;48.154;11.514;2023-07-08T05:29:49;17.67;;;6.30;;
20859;SDS011;10590;48.154;11.514;2023-07-08T05:35:11;9.57;;;4.43;;
20859;SDS011;10590;48.154;11.514;2023-07-08T05:40:34;7.43;;;4.83;;
20859;SDS011;10590;48.154;11.514;2023-07-08T05:45:57;5.73;;;3.97;;
20859;SDS011;10590;48.154;11.514;2023-07-08T05:51:20;7.53;;;4.63;;
20859;SDS011;10590;48.154;11.514;2023-07-08T05:56:43;6.93;;;4.73;;
20859;SDS011;10590;48.154;11.514;2023-07-08T06:02:06;12.63;;;4.73;;
20859;SDS011;10590;48.154;11.514;2023-07-08T06:07:28;8.10;;;4.70;;
20859;SDS011;10590;48.154;11.514;2023-07-08T06:12:51;6.23;;;4.60;;
20859;SDS011;10590;48.154;11.514;2023-07-08T06:18:13;9.40;;;4.93;;
20859;SDS011;10590;48.154;11.514;2023-07-08T06:23:35;9.67;;;4.40;;
20859;SDS011;10590;48.154;11.514;2023-07-08T06:28:58;8.63;;;4.73;;
20859;SDS011;10590;48.154;11.514;2023-07-08T06:34:20;6.30;;;3.93;;
20859;SDS011;10590;48.154;11.514;2023-07-08T06:39:44;5.70;;;3.57;;
20859;SDS011;10590;48.154;11.514;2023-07-08T06:45:08;5.90;;;3.97;;
20859;SDS011;10590;48.154;11.514;2023-07-08T06:50:31;11.47;;;4.80;;
20859;SDS011;10590;48.154;11.514;2023-07-08T06:55:53;6.53;;;4.20;;
20859;SDS011;10590;48.154;11.514;2023-07-08T07:01:16;5.50;;;4.60;;
20859;SDS011;10590;48.154;11.514;2023-07-08T07:06:38;12.87;;;5.27;;
20859;SDS011;10590;48.154;11.514;2023-07-08T07:12:00;11.00;;;5.03;;
20859;SDS011;10590;48.154;11.514;2023-07-08T07:17:23;6.50;;;4.60;;
20859;SDS011;10590;48.154;11.514;2023-07-08T07:22:47;7.27;;;5.33;;
20859;SDS011;10590;48.154;11.514;2023-07-08T07:28:09;12.77;;;6.13;;
20859;SDS011;10590;48.154;11.514;2023-07-08T07:33:32;9.83;;;4.70;;
20859;SDS011;10590;48.154;11.514;2023-07-08T07:38:55;7.80;;;4.57;;
20859;SDS011;10590;48.154;11.514;2023-07-08T07:44:17;8.13;;;5.47;;
20859;SDS011;10590;48.154;11.514;2023-07-08T07:49:40;5.80;;;4.90;;
20859;SDS011;10590;48.154;11.514;2023-07-08T07:55:02;11.57;;;5.47;;
20859;SDS011;10590;48.154;11.514;2023-07-08T08:00:24;7.50;;;4.97;;
20859;SDS011;10590;48.154;11.514;2023-07-08T08:05:48;5.30;;;4.00;;
20859;SDS011;10590;48.154;11.514;2023-07-08T08:11:11;8.47;;;5.03;;
20859;SDS011;10590;48.154;11.514;2023-07-08T08:16:33;8.73;;;4.57;;
20859;SDS011;10590;48.154;11.514;2023-07-08T08:21:56;7.23;;;4.77;;
20859;SDS011;10590;48.154;11.514;2023-07-08T08:27:18;7.53;;;4.20;;
20859;SDS011;10590;48.154;11.514;2023-07-08T08:32:40;5.63;;;4.10;;
20859;SDS011;10590;48.154;11.514;2023-07-08T08:38:04;12.63;;;5.03;;
20859;SDS011;10590;48.154;11.514;2023-07-08T08:43:30;3.97;;;3.57;;
20859;SDS011;10590;48.154;11.514;2023-07-08T08:48:58;6.73;;;5.03;;
20859;SDS011;10590;48.154;11.514;2023-07-08T08:54:25;6.97;;;4.53;;
20859;SDS011;10590;48.154;11.514;2023-07-08T08:59:49;8.13;;;4.93;;
20859;SDS011;10590;48.154;11.514;2023-07-08T09:05:14;6.53;;;3.80;;
20859;SDS011;10590;48.154;11.514;2023-07-08T09:10:42;7.40;;;4.73;;
20859;SDS011;10590;48.154;11.514;2023-07-08T09:16:23;7.07;;;4.47;;
20859;SDS011;10590;48.154;11.514;2023-07-08T09:21:53;8.83;;;5.07;;
20859;SDS011;10590;48.154;11.514;2023-07-08T09:27:23;7.60;;;4.50;;
20859;SDS011;10590;48.154;11.514;2023-07-08T09:32:45;7.80;;;3.97;;
20859;SDS011;10590;48.154;11.514;2023-07-08T09:38:08;6.73;;;3.90;;
20859;SDS011;10590;48.154;11.514;2023-07-08T09:43:35;7.93;;;4.43;;
20859;SDS011;10590;48.154;11.514;2023-07-08T09:48:59;6.10;;;4.47;;
20859;SDS011;10590;48.154;11.514;2023-07-08T09:54:30;5.77;;;3.33;;
20859;SDS011;10590;48.154;11.514;2023-07-08T09:59:55;5.93;;;3.95;;
20859;SDS011;10590;48.154;11.514;2023-07-08T10:05:23;6.95;;;4.18;;
20859;SDS011;10590;48.154;11.514;2023-07-08T10:10:48;5.18;;;3.72;;
20859;SDS011;10590;48.154;11.514;2023-07-08T10:16:20;6.90;;;3.78;;
20859;SDS011;10590;48.154;11.514;2023-07-08T10:21:48;5.00;;;3.47;;
20859;SDS011;10590;48.154;11.514;2023-07-08T10:27:19;6.82;;;3.70;;
20859;SDS011;10590;48.154;11.514;2023-07-08T10:32:54;7.95;;;3.45;;
20859;SDS011;10590;48.154;11.514;2023-07-08T10:38:41;4.18;;;2.47;;
20859;SDS011;10590;48.154;11.514;2023-07-08T10:44:17;5.70;;;3.28;;
20859;SDS011;10590;48.154;11.514;2023-07-08T10:49:51;5.32;;;2.92;;
20859;SDS011;10590;48.154;11.514;2023-07-08T10:55:26;9.90;;;3.35;;
20859;SDS011;10590;48.154;11.514;2023-07-08T11:00:55;8.20;;;3.10;;
20859;SDS011;10590;48.154;11.514;2023-07-08T11:06:24;5.50;;;3.30;;
20859;SDS011;10590;48.154;11.514;2023-07-08T11:12:03;6.45;;;2.80;;
20859;SDS011;10590;48.154;11.514;2023-07-08T11:17:37;5.30;;;2.72;;
20859;SDS011;10590;48.154;11.514;2023-07-08T11:23:07;11.52;;;3.67;;
20859;SDS011;10590;48.154;11.514;2023-07-08T11:28:34;5.93;;;2.90;;
20859;SDS011;10590;48.154;11.514;2023-07-08T11:33:56;4.82;;;3.10;;
20859;SDS011;10590;48.154;11.514;2023-07-08T11:39:27;4.85;;;2.95;;
20859;SDS011;10590;48.154;11.514;2023-07-08T11:44:54;5.05;;;2.95;;
20859;SDS011;10590;48.154;11.514;2023-07-08T11:50:19;3.70;;;2.75;;
20859;SDS011;10590;48.154;11.514;2023-07-08T11:55:46;7.10;;;3.35;;
20859;SDS011;10590;48.154;11.514;2023-07-08T12:01:21;3.63;;;3.05;;
20859;SDS011;10590;48.154;11.514;2023-07-08T12:06:47;3.75;;;3.00;;
20859;SDS011;10590;48.154;11.514;2023-07-08T12:12:14;5.20;;;3.55;;
20859;SDS011;10590;48.154;11.514;2023-07-08T12:17:41;5.82;;;3.38;;
20859;SDS011;10590;48.154;11.514;2023-07-08T12:23:07;4.53;;;3.08;;
20859;SDS011;10590;48.154;11.514;2023-07-08T12:28:36;5.35;;;3.33;;
20859;SDS011;10590;48.154;11.514;2023-07-08T12:33:58;3.13;;;2.20;;
20859;SDS011;10590;48.154;11.514;2023-07-08T12:39:21;13.50;;;3.10;;
20859;SDS011;10590;48.154;11.514;2023-07-08T12:44:45;4.50;;;2.42;;
20859;SDS011;10590;48.154;11.514;2023-07-08T12:50:09;3.08;;;2.28;;
20859;SDS011;10590;48.154;11.514;2023-07-08T12:55:32;3.45;;;2.60;;
20859;SDS011;10590;48.154;11.514;2023-07-08T13:00:57;4.45;;;2.83;;
20859;SDS011;10590;48.154;11.514;2023-07-08T13:06:30;5.30;;;3.28;;
20859;SDS011;10590;48.154;11.514;2023-07-08T13:11:53;5.20;;;3.30;;
20859;SDS011;10590;48.154;11.514;2023-07-08T13:17:19;3.97;;;2.75;;
20859;SDS011;10590;48.154;11.514;2023-07-08T13:22:41;4.65;;;2.70;;
20859;SDS011;10590;48.154;11.514;2023-07-08T13:28:14;10.20;;;2.60;;
20859;SDS011;10590;48.154;11.514;2023-07-08T13:33:46;3.95;;;2.83;;
20859;SDS011;10590;48.154;11.514;2023-07-08T13:39:14;6.00;;;3.13;;
20859;SDS011;10590;48.154;11.514;2023-07-08T13:44:41;4.57;;;2.80;;
20859;SDS011;10590;48.154;11.514;2023-07-08T13:50:07;4.13;;;2.67;;
20859;SDS011;10590;48.154;11.514;2023-07-08T13:55:39;5.75;;;2.55;;
20859;SDS011;10590;48.154;11.514;2023-07-08T14:01:01;3.33;;;2.47;;
20859;SDS011;10590;48.154;11.514;2023-07-08T14:06:27;4.05;;;2.75;;
20859;SDS011;10590;48.154;11.514;2023-07-08T14:11:51;3.33;;;2.40;;
20859;SDS011;10590;48.154;11.514;2023-07-08T14:17:15;5.35;;;2.30;;
20859;SDS011;10590;48.154;11.514;2023-07-08T14:22:43;7.13;;;3.05;;
20859;SDS011;10590;48.154;11.514;2023-07-08T14:28:05;3.78;;;2.47;;
20859;SDS011;10590;48.154;11.514;2023-07-08T14:33:27;10.02;;;2.72;;
20859;SDS011;10590;48.154;11.514;2023-07-08T14:38:50;5.18;;;2.45;;
20859;SDS011;10590;48.154;11.514;2023-07-08T14:44:20;5.90;;;1.95;;
20859;SDS011;10590;48.154;11.514;2023-07-08T14:49:44;5.55;;;2.38;;
20859;SDS011;10590;48.154;11.514;2023-07-08T14:55:08;4.70;;;2.78;;
20859;SDS011;10590;48.154;11.514;2023-07-08T15:00:31;7.07;;;2.47;;
20859;SDS011;10590;48.154;11.514;2023-07-08T15:05:53;5.20;;;2.55;;
20859;SDS011;10590;48.154;11.514;2023-07-08T15:11:16;4.18;;;2.72;;
20859;SDS011;10590;48.154;11.514;2023-07-08T15:16:39;4.35;;;2.15;;
20859;SDS011;10590;48.154;11.514;2023-07-08T15:22:01;5.28;;;2.60;;
20859;SDS011;10590;48.154;11.514;2023-07-08T15:27:25;3.42;;;2.35;;
20859;SDS011;10590;48.154;11.514;2023-07-08T15:32:47;3.40;;;2.15;;
20859;SDS011;10590;48.154;11.514;2023-07-08T15:38:09;3.55;;;2.00;;
20859;SDS011;10590;48.154;11.514;2023-07-08T15:43:32;3.97;;;2.47;;
20859;SDS011;10590;48.154;11.514;2023-07-08T15:48:54;2.55;;;2.15;;
20859;SDS011;10590;48.154;11.514;2023-07-08T15:54:17;3.90;;;2.42;;
20859;SDS011;10590;48.154;11.514;2023-07-08T15:59:41;3.55;;;2.25;;
20859;SDS011;10590;48.154;11.514;2023-07-08T16:05:03;4.38;;;2.20;;
20859;SDS011;10590;48.154;11.514;2023-07-08T16:10:26;9.73;;;2.42;;
20859;SDS011;10590;48.154;11.514;2023-07-08T16:15:49;5.72;;;2.60;;
20859;SDS011;10590;48.154;11.514;2023-07-08T16:21:12;5.97;;;5.15;;
20859;SDS011;10590;48.154;11.514;2023-07-08T16:26:34;6.70;;;1.98;;
20859;SDS011;10590;48.154;11.514;2023-07-08T16:31:58;6.03;;;2.22;;
20859;SDS011;10590;48.154;11.514;2023-07-08T16:37:20;3.60;;;2.38;;
20859;SDS011;10590;48.154;11.514;2023-07-08T16:42:42;6.18;;;3.45;;
20859;SDS011;10590;48.154;11.514;2023-07-08T16:48:08;9.27;;;5.32;;
20859;SDS011;10590;48.154;11.514;2023-07-08T16:53:31;10.60;;;4.57;;
20859;SDS011;10590;48.154;11.514;2023-07-08T16:58:53;6.10;;;3.03;;
20859;SDS011;10590;48.154;11.514;2023-07-08T17:04:16;3.15;;;2.33;;
20859;SDS011;10590;48.154;11.514;2023-07-08T17:09:38;6.20;;;2.30;;
20859;SDS011;10590;48.154;11.514;2023-07-08T17:15:00;4.20;;;2.72;;
20859;SDS011;10590;48.154;11.514;2023-07-08T17:20:25;5.32;;;2.50;;
20859;SDS011;10590;48.154;11.514;2023-07-08T17:25:50;4.22;;;2.47;;
20859;SDS011;10590;48.154;11.514;2023-07-08T17:31:15;3.63;;;2.38;;
20859;SDS011;10590;48.154;11.514;2023-07-08T17:36:41;2.78;;;2.10;;
20859;SDS011;10590;48.154;11.514;2023-07-08T17:42:03;10.48;;;8.90;;
20859;SDS011;10590;48.154;11.514;2023-07-08T17:47:26;5.72;;;4.13;;
20859;SDS011;10590;48.154;11.514;2023-07-08T17:52:49;5.22;;;2.70;;
20859;SDS011;10590;48.154;11.514;2023-07-08T17:58:12;3.00;;;2.40;;
20859;SDS011;10590;48.154;11.514;2023-07-08T18:03:35;4.20;;;2.55;;
20859;SDS011;10590;48.154;11.514;2023-07-08T18:08:58;18.77;;;4.10;;
20859;SDS011;10590;48.154;11.514;2023-07-08T18:14:20;9.73;;;5.82;;
20859;SDS011;10590;48.154;11.514;2023-07-08T18:19:42;9.73;;;3.60;;
20859;SDS011;10590;48.154;11.514;2023-07-08T18:25:10;5.18;;;3.20;;
20859;SDS011;10590;48.154;11.514;2023-07-08T18:30:33;4.55;;;3.15;;
20859;SDS011;10590;48.154;11.514;2023-07-08T18:35:55;4.72;;;2.47;;
20859;SDS011;10590;48.154;11.514;2023-07-08T18:41:19;8.77;;;3.65;;
20859;SDS011;10590;48.154;11.514;2023-07-08T18:46:44;9.63;;;3.03;;
20859;SDS011;10590;48.154;11.514;2023-07-08T18:52:07;7.77;;;4.07;;
20859;SDS011;10590;48.154;11.514;2023-07-08T18:57:31;4.33;;;2.70;;
20859;SDS011;10590;48.154;11.514;2023-07-08T19:02:54;7.87;;;3.03;;
20859;SDS011;10590;48.154;11.514;2023-07-08T19:08:18;5.23;;;2.83;;
20859;SDS011;10590;48.154;11.514;2023-07-08T19:13:43;8.13;;;3.60;;
20859;SDS011;10590;48.154;11.514;2023-07-08T19:19:05;8.90;;;4.37;;
20859;SDS011;10590;48.154;11.514;2023-07-08T19:24:27;19.67;;;6.80;;
20859;SDS011;10590;48.154;11.514;2023-07-08T19:29:50;12.20;;;5.80;;
20859;SDS011;10590;48.154;11.514;2023-07-08T19:35:12;9.87;;;5.03;;
20859;SDS011;10590;48.154;11.514;2023-07-08T19:40:35;21.93;;;8.53;;
20859;SDS011;10590;48.154;11.514;2023-07-08T19:45:58;13.53;;;7.13;;
20859;SDS011;10590;48.154;11.514;2023-07-08T19:51:23;11.67;;;7.13;;
20859;SDS011;10590;48.154;11.514;2023-07-08T19:56:44;9.40;;;5.40;;
20859;SDS011;10590;48.154;11.514;2023-07-08T20:02:11;11.67;;;6.70;;
20859;SDS011;10590;48.154;11.514;2023-07-08T20:07:34;19.83;;;7.67;;
20859;SDS011;10590;48.154;11.514;2023-07-08T20:12:56;8.00;;;5.00;;
20859;SDS011;10590;48.154;11.514;2023-07-08T20:18:27;15.47;;;7.20;;
20859;SDS011;10590;48.154;11.514;2023-07-08T20:23:53;10.00;;;5.97;;
20859;SDS011;10590;48.154;11.514;2023-07-08T20:29:15;8.87;;;6.30;;
20859;SDS011;10590;48.154;11.514;2023-07-08T20:34:39;10.90;;;6.10;;
20859;SDS011;10590;48.154;11.514;2023-07-08T20:40:01;9.97;;;6.13;;
20859;SDS011;10590;48.154;11.514;2023-07-08T20:45:25;8.03;;;5.73;;
20859;SDS011;10590;48.154;11.514;2023-07-08T20:50:50;10.57;;;5.73;;
20859;SDS011;10590;48.154;11.514;2023-07-08T20:56:14;16.33;;;7.07;;
20859;SDS011;10590;48.154;11.514;2023-07-08T21:01:37;15.03;;;6.90;;
20859;SDS011;10590;48.154;11.514;2023-07-08T21:07:01;13.17;;;6.93;;
20859;SDS011;10590;48.154;11.514;2023-07-08T21:12:23;13.67;;;6.10;;
20859;SDS011;10590;48.154;11.514;2023-07-08T21:17:46;18.43;;;6.97;;
20859;SDS011;10590;48.154;11.514;2023-07-08T21:23:13;8.77;;;7.07;;
20859;SDS011;10590;48.154;11.514;2023-07-08T21:28:39;8.93;;;6.27;;
20859;SDS011;10590;48.154;11.514;2023-07-08T21:34:02;13.53;;;7.37;;
20859;SDS011;10590;48.154;11.514;2023-07-08T21:39:27;11.27;;;6.57;;
20859;SDS011;10590;48.154;11.514;2023-07-08T21:44:51;12.83;;;6.97;;
20859;SDS011;10590;48.154;11.514;2023-07-08T21:50:13;9.30;;;5.57;;
20859;SDS011;10590;48.154;11.514;2023-07-08T21:55:36;10.07;;;5.40;;
20859;SDS011;10590;48.154;11.514;2023-07-08T22:00:58;7.23;;;5.03;;
20859;SDS011;10590;48.154;11.514;2023-07-08T22:06:20;9.60;;;6.27;;
20859;SDS011;10590;48.154;11.514;2023-07-08T22:11:44;13.80;;;5.63;;
20859;SDS011;10590;48.154;11.514;2023-07-08T22:17:11;14.10;;;5.57;;
20859;SDS011;10590;48.154;11.514;2023-07-08T22:22:36;13.00;;;6.10;;
20859;SDS011;10590;48.154;11.514;2023-07-08T22:28:01;10.90;;;6.37;;
20859;SDS011;10590;48.154;11.514;2023-07-08T22:33:23;10.23;;;5.90;;
20859;SDS011;10590;48.154;11.514;2023-07-08T22:38:46;14.47;;;6.23;;
20859;SDS011;10590;48.154;11.514;2023-07-08T22:44:21;8.03;;;4.97;;
20859;SDS011;10590;48.154;11.514;2023-07-08T22:49:43;10.60;;;5.30;;
20859;SDS011;10590;48.154;11.514;2023-07-08T22:55:07;11.23;;;6.47;;
20859;SDS011;10590;48.154;11.514;2023-07-08T23:00:35;11.40;;;5.57;;
20859;SDS011;10590;48.154;11.514;2023-07-08T23:05:59;7.37;;;5.97;;
20859;SDS011;10590;48.154;11.514;2023-07-08T23:11:22;14.30;;;5.53;;
20859;SDS011;10590;48.154;11.514;2023-07-08T23:16:45;8.80;;;5.43;;
20859;SDS011;10590;48.154;11.514;2023-07-08T23:22:13;7.90;;;4.93;;
20859;SDS011;10590;48.154;11.514;2023-07-08T23:27:38;10.17;;;5.20;;
20859;SDS011;10590;48.154;11.514;2023-07-08T23:33:02;7.67;;;4.90;;
20859;SDS011;10590;48.154;11.514;2023-07-08T23:38:25;7.00;;;4.43;;
20859;SDS011;10590;48.154;11.514;2023-07-08T23:43:47;4.43;;;3.47;;
20859;SDS011;10590;48.154;11.514;2023-07-08T23:49:19;5.63;;;3.97;;
20859;SDS011;10590;48.154;11.514;2023-07-08T23:54:43;6.70;;;4.27;;
